Strona główna
METAR-TAF:

METAR-TAF

Lotnisko :

Piacenza, Włochy

Szerokość geograficzna: 44-55N, Długość geograficzna: 009-44E, wysokość: 134 m

Aktualna obserwacja pogody

Raport powstał 1 godzina i 37 minut temu, godzina 17:55 UTC
Wiatr 1 kt z kierunków zmiennych
Temperatura 8°C
Wilgotność 100%
Ciśnienie 1017 hPa
Widzialność: 2700 m
Mało chmury na wysokości 4000 ft
Przerywane chmury na wysokości 6000 ft
zamglenie

METAR: LIMS 081755Z VRB01KT 2700 BR FEW040 BKN060 08/08 Q1017 RMK BKN VIS MIN 2700 WIND THR30 29001KT YLO

czas: 20:32 (19:32 UTC)


TAF: brakujący

Obserwacja i prognoza pogody dla ponad 4000 lotnisk (raport METAR i TAF).

Dostępne stacje oznaczono żółtymi i czerwonymi punktami na mapie.

Najedź kursorem aby zobaczyć nazwę stacji.

Kliknij aby zobaczyć obserwacje i prognozy pogody.

Aby zmienić mapę: kliknij na zielony przycisk z czarnym krzyżykiem, aby powiększyć; na zielony przycisk z myślnikiem, aby pomniejszyć; na zielone strzałki, aby przejść do map sąsiednich.


METAR-TAF: